Date,TemperatureHighF,TemperatureAvgF,TemperatureLowF,DewpointHighF,DewpointAvgF,DewpointLowF,HumidityHigh,HumidityAvg,HumidityLow,PressureMaxIn,PressureMinIn,WindSpeedMaxMPH,WindSpeedAvgMPH,GustSpeedMaxMPH,PrecipitationSumIn
2013-1-1,21,14,4,11,6,-4,76,70,58,30.06,29.88,22,0,54,0.00
2013-1-2,23,20,17,16,13,10,81,76,70,29.99,29.89,32,1,46,0.00
2013-1-3,27,22,17,18,15,10,80,74,61,29.96,29.64,21,0,55,0.00
2013-1-4,34,27,20,22,17,12,75,65,55,30.03,29.66,0,0,47,0.00
2013-1-5,34,26,20,23,18,13,80,72,62,30.07,29.74,0,0,43,0.00
2013-1-6,31,23,10,27,17,5,86,78,70,30.12,29.73,24,0,54,0.00
2013-1-7,40,27,12,26,17,7,81,67,55,30.10,29.63,0,0,45,0.00
2013-1-8,38,30,20,28,22,15,81,71,60,30.00,29.69,36,0,49,0.00
2013-1-9,35,33,30,28,24,21,78,70,63,30.33,29.64,5,0,49,0.00
2013-1-10,44,32,22,26,21,16,81,63,40,30.34,29.88,0,0,39,0.10
2013-1-11,41,37,35,35,32,26,87,80,64,29.88,29.46,1,0,49,0.10
2013-1-12,42,36,24,39,29,14,89,75,62,29.87,29.34,9,0,40,0.00
2013-1-13,24,20,15,14,11,8,74,68,63,29.93,29.83,0,0,37,0.00
2013-1-14,24,16,10,11,7,1,75,67,55,30.22,29.93,0,0,1,0.00
2013-1-15,26,17,8,11,5,-1,70,59,46,30.23,29.81,34,1,56,0.00
2013-1-16,29,23,13,22,14,3,77,68,59,30.00,29.43,13,0,40,0.00
2013-1-17,13,8,4,4,0,-4,75,70,64,30.20,30.00,6,0,51,0.00
2013-1-18,16,10,3,11,4,-3,80,75,69,30.21,29.70,0,0,51,0.00
2013-1-19,33,22,12,27,16,6,84,80,74,29.72,29.38,0,0,31,0.00
2013-1-20,12,6,-1,6,-1,-8,79,73,62,30.09,29.63,35,0,52,0.00
2013-1-21,3,-2,-7,-5,-9,-14,75,72,67,30.04,29.90,51,11,58,0.00
2013-1-22,3,-3,-7,-5,-10,-14,74,71,66,30.14,30.04,55,35,58,0.00
2013-1-23,14,4,-4,4,-3,-11,76,72,64,30.27,29.93,55,16,58,0.00
2013-1-24,11,8,4,1,-2,-4,73,66,59,30.54,30.28,54,12,58,0.00
2013-1-25,23,14,6,12,7,-1,80,73,60,30.28,29.84,44,4,56,0.00
2013-1-26,25,19,17,16,12,9,84,73,61,30.27,29.96,1,0,1,0.00
2013-1-27,33,26,19,24,17,11,81,67,59,30.20,29.90,1,0,1,0.00
2013-1-28,37,31,28,31,27,24,87,84,77,29.91,29.78,1,0,49,0.00
2013-1-29,35,33,31,32,29,27,88,86,84,29.80,29.43,37,1,52,0.16
2013-1-30,32,22,14,28,18,10,85,81,75,29.54,29.36,30,0,58,0.16
2013-1-31,14,12,10,10,6,4,84,79,74,29.85,29.37,20,1,49,0.00
2013-2-1,13,6,-2,6,-1,-9,82,71,59,30.03,29.87,47,6,58,0.00
2013-2-2,13,2,-5,5,-5,-12,77,71,62,30.03,29.90,53,17,58,0.00
2013-2-3,12,8,-6,6,1,-12,78,73,62,29.88,29.73,54,21,58,0.00
2013-2-4,17,6,-5,6,-2,-12,77,71,59,29.92,29.80,54,16,58,0.00
2013-2-5,23,11,-4,14,4,-10,78,74,65,29.93,29.61,55,14,58,0.00
2013-2-6,22,16,2,12,8,-4,80,70,62,30.12,29.93,52,4,58,0.00
2013-2-7,24,20,17,19,15,12,85,80,73,30.18,30.10,55,10,58,0.00
2013-2-8,26,17,1,15,9,-5,79,71,60,30.32,30.17,54,9,58,0.00
2013-2-9,29,17,0,18,10,-6,83,73,62,30.29,30.01,52,12,58,0.00
2013-2-10,22,21,18,17,16,13,81,79,78,30.03,29.96,44,3,58,0.00
2013-2-11,32,25,20,29,22,16,89,86,82,29.74,29.20,47,5,58,0.00
2013-2-12,29,22,16,22,17,12,86,80,67,29.86,29.68,48,5,56,0.00
2013-2-13,39,26,14,29,20,10,87,80,67,29.67,29.54,55,9,58,0.00
2013-2-14,29,24,18,25,19,9,85,79,67,29.90,29.58,44,7,56,0.00
2013-2-15,19,15,10,10,7,3,76,71,61,30.09,29.90,26,2,58,0.00
2013-2-16,19,12,6,8,4,-1,79,71,57,30.11,30.02,51,7,58,0.00
2013-2-17,24,16,7,10,5,1,78,63,48,30.09,29.83,52,14,58,0.00
2013-2-18,39,29,18,28,20,4,86,71,52,29.84,29.40,55,7,58,0.00
2013-2-19,29,18,11,25,13,7,86,83,81,29.93,29.36,47,5,58,0.00
2013-2-20,17,14,11,12,9,7,83,81,78,30.35,29.94,13,5,17,0.00
2013-2-21,24,20,15,20,16,11,86,83,80,30.42,30.24,39,3,58,0.00
2013-2-22,28,23,19,23,19,15,87,84,80,30.24,29.78,22,3,55,0.00
2013-2-23,34,27,21,28,23,17,87,84,77,29.79,29.67,55,7,58,0.00
2013-2-24,33,28,26,27,23,22,86,83,75,30.05,29.79,50,4,55,0.00
2013-2-25,40,30,24,29,24,20,85,77,61,30.06,30.01,54,5,58,0.00
2013-2-26,41,32,25,30,25,20,83,75,62,30.06,29.91,40,3,58,0.00
2013-2-27,35,32,30,28,26,24,87,79,72,29.89,29.78,33,4,55,0.00
2013-2-28,30,26,23,27,21,16,88,79,71,30.19,29.86,12,4,49,0.00
2013-3-1,27,22,20,17,14,11,77,70,62,30.31,30.19,28,4,55,0.00
2013-3-2,26,22,18,20,13,9,78,69,60,30.24,30.11,18,4,55,0.00
2013-3-3,33,24,9,28,16,2,81,71,56,30.11,30.06,20,4,56,0.00
2013-3-4,32,16,1,22,8,-4,80,72,58,30.14,30.06,6,1,52,0.00
2013-3-5,29,21,7,21,14,2,83,77,70,30.11,30.07,8,1,55,0.00
2013-3-6,31,26,20,24,21,14,87,81,74,30.25,30.11,5,2,44,0.00
2013-3-7,32,24,19,20,17,14,83,74,60,30.37,30.23,41,1,47,0.00
2013-3-8,42,27,11,26,18,7,85,68,48,30.38,30.17,8,2,12,0.35
2013-3-9,35,33,27,31,26,20,85,76,66,30.17,29.73,11,2,17,0.35
2013-3-10,37,34,31,32,29,25,87,82,76,29.93,29.69,10,0,40,0.14
2013-3-11,32,29,25,28,26,20,89,86,81,29.87,29.54,20,2,53,0.02
2013-3-12,26,22,19,20,16,13,86,79,65,29.86,29.56,9,3,24,0.00
2013-3-13,28,22,17,17,13,10,85,67,52,30.15,29.86,9,4,17,0.00
2013-3-14,42,25,7,23,15,2,81,67,46,30.15,29.84,28,1,49,0.00
2013-3-15,33,24,16,29,16,7,84,70,58,29.98,29.82,18,1,49,0.20
2013-3-16,29,20,15,16,12,8,78,71,54,30.04,29.89,25,0,47,0.20
2013-3-17,28,18,9,13,6,0,77,61,47,30.23,30.04,21,2,33,0.00
2013-3-18,40,25,10,24,16,3,82,70,47,30.05,29.40,14,3,51,0.00
2013-3-19,29,26,20,24,19,15,84,76,64,29.75,29.34,12,4,23,0.00
2013-3-20,26,20,15,17,13,9,82,74,63,29.90,29.75,10,4,38,0.00
2013-3-21,27,22,15,16,14,9,81,73,61,29.94,29.87,17,4,43,0.00
2013-3-22,34,25,15,26,19,9,86,78,66,30.04,29.92,7,2,12,0.00
2013-3-23,36,29,25,27,21,19,79,73,63,30.10,30.02,5,1,7,0.00
2013-3-24,36,29,24,25,21,18,80,73,61,30.09,29.91,8,2,14,0.00
2013-3-25,36,30,25,27,23,20,83,76,67,30.05,29.90,7,2,10,0.00
2013-3-26,40,33,30,31,26,22,85,76,64,30.14,30.05,18,3,47,0.00
2013-3-27,42,34,26,27,22,17,78,62,44,30.20,30.13,14,3,15,0.26
2013-3-28,45,32,26,23,19,16,73,59,39,30.23,30.19,8,1,51,0.20
2013-3-29,52,36,24,27,20,16,73,54,35,30.22,30.09,5,1,7,0.20
2013-3-30,41,36,29,34,27,18,86,70,55,30.09,29.67,10,2,46,0.10
2013-3-31,42,32,24,32,24,-100,88,75,53,29.80,29.50,14,4,18,0.13
2013-4-1,29,23,19,17,12,10,81,63,48,29.99,29.80,12,5,46,0.13
2013-4-2,33,24,14,16,10,6,72,57,44,30.19,29.98,8,3,53,0.00
2013-4-3,41,29,15,22,14,6,67,55,39,30.34,30.01,39,2,52,0.00
2013-4-4,46,38,31,31,24,15,67,58,45,30.02,29.83,11,1,52,0.00
2013-4-5,37,31,26,21,18,15,68,58,47,30.21,30.02,5,0,56,0.00
2013-4-6,38,31,25,30,24,15,86,75,63,30.11,29.50,1,0,52,0.00
2013-4-7,41,35,31,30,29,25,89,79,63,29.93,29.48,1,0,52,0.00
2013-4-8,36,32,28,32,28,24,87,85,81,29.97,29.81,29,0,56,0.00
2013-4-9,37,33,28,34,28,22,89,83,73,30.16,29.97,12,0,51,0.20
2013-4-10,44,35,25,28,24,21,84,65,46,30.18,30.10,39,1,55,0.20
2013-4-11,34,32,29,25,22,20,74,67,61,30.12,29.84,16,3,53,0.00
2013-4-12,35,30,27,28,25,23,88,83,74,29.84,29.64,14,3,20,0.00
2013-4-13,39,31,26,30,25,22,87,79,66,29.86,29.64,7,1,53,0.06
2013-4-14,49,35,26,34,27,22,87,74,51,29.97,29.85,7,1,52,0.28
2013-4-15,56,41,32,41,32,25,89,70,48,29.85,29.56,9,2,56,0.98
2013-4-16,47,39,34,33,28,25,75,66,55,30.31,29.75,9,3,43,0.14
2013-4-17,42,35,30,31,28,25,83,77,65,30.39,30.04,11,1,48,0.00
2013-4-18,37,34,33,34,31,28,90,87,83,30.04,29.37,16,1,37,0.30
2013-4-19,35,30,22,31,26,18,91,88,82,29.71,28.99,5,1,38,0.78
2013-4-20,33,25,18,20,16,11,85,70,55,30.35,29.71,7,1,55,0.78
2013-4-21,47,33,15,29,21,9,82,63,44,30.39,30.11,16,5,21,0.36
2013-4-22,43,38,32,37,31,25,85,78,63,30.18,30.04,9,2,53,0.24
2013-4-23,36,33,29,32,29,25,89,84,78,30.13,29.84,25,2,49,0.24
2013-4-24,52,37,23,34,24,19,85,61,40,29.93,29.84,10,1,47,0.54
2013-4-25,49,38,30,37,27,21,87,66,42,30.14,29.81,16,2,46,0.28
2013-4-26,61,42,29,40,31,22,77,66,46,30.14,30.00,40,2,55,0.16
2013-4-27,68,49,30,46,37,26,86,66,43,30.09,29.91,6,1,52,0.24
2013-4-28,71,60,47,49,43,35,77,56,40,29.92,29.68,10,3,47,0.28
2013-4-29,67,55,44,52,44,35,85,67,47,29.75,29.69,15,1,52,0.08
2013-4-30,73,59,44,58,49,40,89,72,57,29.78,29.49,14,3,55,0.12
2013-5-1,56,48,35,47,40,29,87,75,59,30.36,29.78,6,2,51,0.71
2013-5-2,37,33,31,32,29,28,89,85,76,30.41,30.33,10,4,46,0.04
2013-5-3,38,33,30,33,29,27,89,87,81,30.35,30.17,4,2,23,0.47
2013-5-4,49,39,33,40,34,30,90,82,67,30.17,30.11,6,2,47,0.07
2013-5-5,55,44,34,42,35,29,88,73,57,30.16,30.08,14,1,29,0.07
2013-5-6,67,47,29,47,36,25,88,67,48,30.10,30.01,19,1,56,0.00
2013-5-7,72,54,34,50,40,30,87,62,40,30.06,29.96,39,2,53,0.00
2013-5-8,76,59,41,49,41,35,80,55,33,30.00,29.92,38,1,56,0.00
2013-5-9,52,41,36,40,34,31,86,78,60,30.14,29.98,32,2,53,0.59
2013-5-10,46,38,31,32,25,-100,85,65,43,30.15,29.89,24,2,58,0.36
2013-5-11,47,38,30,33,30,22,85,71,50,29.89,29.72,13,4,22,0.06
2013-5-12,40,34,31,29,24,-100,87,68,51,30.04,29.84,12,6,18,0.12
2013-5-13,59,43,29,33,25,19,69,50,35,30.06,29.83,11,2,45,0.04
2013-5-14,70,55,42,46,38,30,67,53,42,29.82,29.37,15,4,56,0.00
2013-5-15,74,65,54,48,42,38,66,46,32,29.71,29.36,12,5,23,0.00
2013-5-16,65,46,38,43,18,-100,74,57,43,30.05,29.71,6,1,53,0.00
2013-5-17,61,46,33,41,31,-100,83,66,47,30.16,30.05,8,1,38,0.00
2013-5-18,53,51,45,49,44,36,86,78,66,30.09,29.90,3,0,7,0.27
2013-5-19,74,61,50,60,52,44,87,73,55,29.90,29.81,5,1,49,0.03
2013-5-20,59,49,45,49,44,41,89,83,70,29.85,29.67,19,2,51,0.18
2013-5-21,52,46,42,49,42,39,90,89,84,29.72,29.62,23,1,55,0.82
2013-5-22,47,43,40,45,41,37,91,91,87,29.95,29.72,7,1,53,0.54
2013-5-23,47,40,36,37,32,29,88,74,56,30.29,29.95,9,3,48,0.46
2013-5-24,62,45,28,40,32,24,87,61,43,30.39,30.28,8,1,47,0.02
2013-5-25,69,52,33,44,34,27,78,51,38,30.37,30.29,45,3,56,0.00
2013-5-26,71,51,31,42,33,26,82,53,32,30.33,30.18,8,1,53,0.00
2013-5-27,69,54,37,45,37,30,78,54,37,30.18,29.93,7,1,56,0.00
2013-5-28,62,53,47,48,42,36,79,66,58,29.94,29.70,22,1,56,0.00
2013-5-29,76,61,51,59,52,45,84,72,54,29.80,29.70,25,1,53,0.00
2013-5-30,89,71,55,68,61,49,88,72,45,29.80,29.63,24,2,58,0.10
2013-5-31,83,72,58,63,60,52,86,69,45,29.70,29.58,9,2,16,0.18
2013-6-1,73,56,42,61,50,39,89,80,61,29.74,29.59,16,1,53,0.70
2013-6-2,54,45,38,39,37,35,89,75,53,29.96,29.74,9,3,55,0.06
2013-6-3,60,53,36,39,35,31,85,52,35,30.07,29.98,48,3,58,0.00
2013-6-4,65,52,34,43,34,28,81,55,34,30.18,30.07,13,1,56,0.00
2013-6-5,54,49,46,46,41,36,85,74,62,30.15,30.06,40,1,56,0.06
2013-6-6,56,50,44,48,44,40,88,81,71,30.06,29.98,44,1,55,0.12
2013-6-7,73,56,44,48,42,37,87,65,32,30.00,29.90,9,0,44,0.06
2013-6-8,77,56,42,49,40,36,83,59,32,29.99,29.90,28,0,47,0.00
2013-6-9,73,58,47,52,44,38,83,61,41,30.04,29.92,6,1,36,0.00
2013-6-10,78,61,52,60,53,47,85,75,52,29.92,29.76,3,0,54,0.10
2013-6-11,74,62,55,62,55,50,89,78,63,29.83,29.77,19,0,53,0.10
2013-6-12,80,61,50,58,50,46,86,70,40,29.84,29.77,14,0,47,0.00
2013-6-13,63,56,51,49,47,43,81,71,58,30.08,29.79,11,1,33,0.00
2013-6-14,64,51,40,46,39,35,85,67,37,30.14,29.99,6,0,48,0.00
2013-6-15,72,57,48,61,48,37,85,74,64,29.99,29.73,20,0,46,0.08
2013-6-16,79,64,54,58,53,49,89,69,41,29.83,29.70,32,2,55,0.08
2013-6-17,57,51,44,49,43,38,81,73,61,30.02,29.81,41,1,56,0.00
2013-6-18,68,51,36,47,38,32,86,66,39,30.13,30.01,43,2,54,0.00
2013-6-19,77,64,48,52,45,38,68,51,39,30.06,29.94,18,1,55,0.00
2013-6-20,69,62,57,64,53,46,87,72,53,30.08,29.96,16,1,56,0.12
2013-6-22,64,60,54,59,56,51,92,87,84,30.04,29.95,37,1,58,0.02
2013-6-23,83,69,56,70,62,53,92,81,62,29.92,29.70,6,1,30,0.02
2013-6-24,83,73,63,66,62,55,88,71,54,29.87,29.76,44,2,53,0.02
2013-6-25,85,70,62,64,59,55,81,70,49,29.78,29.75,3,0,48,0.00
2013-6-26,88,66,59,71,59,54,89,81,53,29.75,29.64,11,1,54,0.42
2013-6-27,78,66,61,69,61,56,90,84,66,29.72,29.64,40,1,53,0.42
2013-6-28,63,59,56,60,56,53,91,88,84,29.70,29.61,27,1,48,0.12
2013-6-29,65,59,53,55,51,46,92,77,54,29.88,29.70,3,0,7,0.23
2013-6-30,78,61,49,54,48,44,84,67,37,30.04,29.88,1,0,1,0.23
2013-7-1,65,57,47,51,46,40,83,68,44,30.19,30.04,10,0,52,0.00
2013-7-2,71,53,39,49,42,34,86,68,45,30.17,30.06,40,1,56,0.00
2013-7-3,79,61,44,54,47,39,84,62,40,30.06,29.95,45,2,56,0.00
2013-7-4,83,70,62,62,57,50,79,63,49,29.96,29.86,36,1,53,0.00
2013-7-5,90,78,69,65,60,56,66,55,39,29.91,29.83,40,3,56,0.00
2013-7-6,93,77,70,67,61,58,70,58,39,29.88,29.83,38,4,56,0.00
2013-7-7,80,67,58,68,61,54,90,80,66,29.94,29.82,37,3,58,0.20
2013-7-8,65,59,54,59,54,51,90,86,77,29.97,29.91,43,3,55,0.46
2013-7-9,79,66,59,69,62,55,91,85,70,29.97,29.65,22,1,54,0.06
2013-7-10,71,65,59,63,55,-100,91,74,57,29.87,29.65,19,3,56,0.49
2013-7-11,78,63,52,58,52,47,86,68,44,30.07,29.90,36,1,58,0.43
2013-7-12,87,72,63,65,59,53,73,63,46,30.04,29.93,9,1,55,0.00
2013-7-13,85,76,71,69,61,54,68,58,53,30.05,29.93,12,1,53,0.00
2013-7-14,90,74,66,67,61,57,76,65,46,30.15,30.05,3,0,53,0.00
2013-7-15,86,70,63,68,62,58,86,76,56,30.22,30.15,18,0,51,0.00
2013-7-16,89,77,65,78,70,59,88,78,65,30.18,30.07,43,4,58,0.18
2013-7-17,87,76,68,73,68,62,89,77,63,30.14,30.05,39,2,56,0.16
2013-7-18,89,73,68,76,68,63,92,84,63,30.06,29.64,28,1,58,1.69
2013-7-19,80,72,65,70,64,55,92,76,55,29.74,29.52,5,1,8,1.55
2013-7-20,68,61,50,56,49,-100,80,67,57,30.00,29.70,2,0,52,0.18
2013-7-21,68,55,44,54,47,40,87,77,60,30.02,29.86,3,0,51,0.00
2013-7-22,83,67,51,67,58,47,88,73,54,29.88,29.53,12,1,40,0.00
2013-7-23,66,60,55,55,49,46,74,66,55,29.95,29.63,6,2,30,0.00
2013-7-24,75,62,52,57,51,45,80,69,48,30.01,29.93,41,1,56,0.00
2013-7-25,75,65,57,61,56,51,86,74,60,29.94,29.83,38,1,52,0.00
2013-7-26,65,57,48,60,53,45,91,88,82,29.90,29.80,7,0,14,0.36
2013-7-27,58,52,48,51,47,45,91,85,73,29.88,29.78,2,0,55,0.04
2013-7-28,51,50,48,49,47,45,92,90,86,29.92,29.70,3,1,45,0.94
2013-7-29,74,58,49,57,51,47,93,80,51,30.10,29.92,5,0,43,0.10
2013-7-30,77,64,52,62,56,48,87,76,57,30.09,30.00,28,0,53,0.00
2013-7-31,76,67,61,65,60,54,87,80,67,30.01,29.81,31,2,56,0.12
2013-8-1,73,64,57,58,54,50,82,71,56,29.84,29.79,9,0,45,0.12
2013-8-2,74,64,56,59,54,50,86,71,57,29.89,29.74,35,2,53,0.02
2013-8-3,68,62,56,56,52,49,80,71,62,30.09,29.89,6,0,41,0.02
2013-8-4,72,60,51,55,50,46,85,70,47,30.17,30.03,39,1,55,0.00
2013-8-5,66,60,52,58,53,46,85,77,72,30.02,29.78,34,1,58,0.00
2013-8-6,75,65,60,65,60,56,90,84,68,29.78,29.69,36,1,56,0.30
2013-8-7,65,61,52,60,55,46,91,83,59,29.93,29.67,42,1,55,1.12
2013-8-8,71,60,50,58,52,46,87,76,54,29.98,29.92,40,1,56,0.08
2013-8-9,71,62,55,56,53,50,89,74,50,30.00,29.84,5,1,56,0.04
2013-8-10,73,61,53,57,52,48,84,74,54,30.08,29.99,46,1,55,0.00
2013-8-11,75,62,54,61,54,48,85,75,56,30.03,29.94,39,2,56,0.00
2013-8-12,74,58,49,61,52,43,88,81,63,30.00,29.85,39,2,54,0.03
2013-8-13,62,54,48,52,45,-100,87,77,65,30.11,29.99,16,0,49,0.02
2013-8-14,71,56,49,53,45,-100,84,69,48,30.13,30.03,2,0,51,0.02
2013-8-15,79,58,54,57,37,-100,74,58,43,30.04,29.99,24,1,53,0.00
2013-8-16,82,62,51,63,49,-100,84,69,49,30.10,30.03,3,0,55,0.00
2013-8-17,85,68,57,63,57,52,83,69,46,30.14,30.04,9,0,56,0.00
2013-8-18,84,70,60,62,56,-100,80,65,47,30.09,29.96,2,0,33,0.00
2013-8-19,84,67,64,68,49,-100,80,68,58,29.97,29.83,5,0,31,0.00
2013-8-20,90,76,69,71,63,-100,81,68,49,29.91,29.82,5,1,52,0.00
2013-8-21,91,77,70,74,67,64,84,72,57,29.92,29.73,10,1,48,0.00
2013-8-22,79,66,56,65,56,49,85,71,48,30.11,29.92,22,1,44,0.00
2013-8-23,80,61,49,58,52,45,86,73,45,30.17,30.07,11,1,51,0.00
2013-8-24,83,71,65,62,57,52,71,62,48,30.13,29.95,8,1,25,0.00
2013-8-25,93,76,70,76,65,-100,84,72,55,29.96,29.86,13,2,43,0.00
2013-8-26,86,74,66,73,67,63,91,81,63,29.93,29.83,8,0,39,1.12
2013-8-27,72,68,67,69,65,64,90,89,87,29.90,29.81,1,0,3,0.02
2013-8-28,82,72,66,67,64,61,86,75,60,30.00,29.98,1,0,2,0.00
2013-8-29,90,71,64,71,64,60,90,81,48,30.00,29.77,9,0,41,0.10
2013-8-30,73,67,60,66,62,56,90,84,72,29.92,29.70,6,1,51,0.55
2013-8-31,76,65,59,65,60,56,90,84,68,29.90,29.72,3,0,54,0.45
2013-9-1,76,64,54,68,58,-100,89,83,72,29.82,29.61,3,1,6,0.30
2013-9-2,60,54,50,51,48,47,90,82,69,29.95,29.82,4,1,44,0.16
2013-9-3,74,60,51,58,52,48,90,75,51,29.96,29.81,22,1,45,0.00
2013-9-4,67,58,47,57,49,42,83,71,55,30.14,29.82,27,1,56,0.05
2013-9-5,70,53,42,54,45,38,88,75,51,30.25,30.10,41,2,56,0.05
2013-9-6,82,67,52,70,60,47,88,78,66,30.09,29.82,34,1,53,0.16
2013-9-7,77,65,53,69,61,50,90,86,77,30.07,29.78,1,0,2,0.12
2013-9-8,65,54,47,56,48,-100,92,83,71,30.14,29.96,5,0,53,0.08
2013-9-9,70,63,56,65,58,50,90,82,72,29.95,29.64,43,1,56,0.00
2013-9-10,74,67,62,69,64,59,93,89,78,29.84,29.65,36,1,55,0.08
2013-9-11,82,66,60,65,60,54,91,83,55,29.90,29.83,33,1,58,0.10
2013-9-12,60,55,49,54,49,43,86,80,74,30.13,29.89,3,0,41,0.10
2013-9-13,61,49,41,46,40,37,86,73,55,30.21,30.06,1,0,2,0.00
2013-9-14,72,56,42,54,47,37,84,71,49,30.05,29.84,2,0,48,0.00
2013-9-15,62,51,43,52,43,-100,87,78,66,30.24,29.84,1,0,3,0.16
2013-9-16,61,48,39,47,41,36,89,78,59,30.38,30.24,2,0,26,0.16
2013-9-17,70,54,42,49,43,37,86,68,43,30.28,30.03,5,1,40,0.00
2013-9-18,62,55,52,53,50,47,86,83,78,30.03,29.83,3,0,8,0.00
2013-9-19,78,69,62,68,64,58,91,83,71,29.83,29.62,9,1,45,0.10
2013-9-20,70,63,53,64,58,48,91,82,69,29.71,29.56,3,1,39,0.30
2013-9-21,53,48,44,48,42,39,89,82,72,29.92,29.71,3,1,49,0.20
2013-9-22,50,45,39,43,38,-100,87,80,71,30.06,29.92,2,0,25,0.10
2013-9-23,65,49,37,50,42,33,89,78,56,30.07,30.00,6,1,7,0.00
2013-9-24,70,52,42,54,46,38,90,80,57,30.05,29.93,7,0,36,0.00
2013-9-25,72,54,45,57,48,41,89,81,59,29.98,29.94,1,0,56,0.00
2013-9-26,72,58,44,58,51,41,90,78,58,30.03,29.97,12,1,47,0.00
2013-9-27,79,62,51,58,50,45,82,66,44,30.05,29.95,9,1,12,0.00
2013-9-28,76,66,56,59,53,46,81,64,49,29.96,29.64,16,2,18,0.00
2013-9-29,70,56,49,52,44,-100,81,69,49,29.91,29.75,3,0,54,0.10
2013-9-30,73,60,50,50,47,44,80,64,42,29.88,29.63,10,1,18,0.10
2013-10-1,62,57,55,48,42,40,60,58,50,29.77,29.67,3,0,3,0.00
2013-10-2,73,61,52,45,41,38,71,49,32,29.99,29.78,31,1,56,0.00
2013-10-3,58,55,51,52,48,44,87,79,72,29.99,29.94,7,0,55,0.45
2013-10-4,60,55,53,52,49,47,87,80,72,30.10,29.96,12,1,56,0.18
2013-10-5,54,50,49,49,47,46,91,89,78,30.10,29.80,6,1,55,0.96
2013-10-6,58,53,49,56,51,46,92,91,87,29.80,29.55,3,0,48,0.34
2013-10-7,54,47,43,47,43,38,91,87,75,29.95,29.59,5,1,7,0.14
2013-10-8,69,55,42,51,44,38,88,70,47,30.03,29.87,10,1,36,0.06
2013-10-9,61,60,58,48,47,45,64,63,62,29.99,29.97,2,1,31,0.00
2013-10-10,72,60,53,49,46,45,78,62,42,30.03,30.00,21,1,53,0.00
2013-10-11,71,57,48,54,47,42,86,71,53,30.05,29.89,26,2,56,0.00
2013-10-12,65,57,49,59,50,43,84,78,71,29.91,29.76,20,1,55,0.27
2013-10-13,56,49,42,43,38,-100,79,69,55,30.33,29.91,43,2,56,0.27
2013-10-14,59,47,38,45,38,31,82,70,56,30.38,30.23,3,0,53,0.00
2013-10-15,50,47,43,47,43,38,90,86,81,30.22,29.67,13,0,55,0.36
2013-10-16,50,46,37,47,42,33,91,87,79,29.83,29.65,3,1,31,0.58
2013-10-17,54,41,31,44,36,28,90,81,64,29.82,29.68,1,0,45,0.28
2013-10-18,45,43,40,42,40,37,90,88,85,29.80,29.68,20,1,51,0.47
2013-10-19,51,40,33,42,35,30,90,83,68,29.79,29.58,16,1,55,0.08
2013-10-20,50,40,34,40,33,-100,87,77,61,29.72,29.62,3,0,53,0.08
2013-10-21,43,36,32,34,30,24,89,78,64,29.66,29.57,12,1,48,0.25
2013-10-22,36,34,32,33,30,25,88,83,75,29.87,29.55,6,2,49,0.26
2013-10-23,39,34,30,32,28,25,85,76,64,29.85,29.78,13,2,22,0.26
2013-10-24,44,35,32,34,30,27,87,81,67,30.09,29.84,37,2,58,0.23
2013-10-25,45,40,31,34,29,26,87,68,57,30.13,29.51,7,2,14,0.17
2013-10-26,43,37,34,38,32,28,87,81,69,29.90,29.48,6,3,25,0.36
2013-10-27,43,37,33,34,30,-100,86,77,66,30.08,29.74,6,1,45,0.36
2013-10-28,37,32,25,29,22,-100,79,68,60,30.43,30.08,5,1,40,0.06
2013-10-29,40,31,24,28,23,18,81,73,56,30.42,30.14,5,0,44,0.00
2013-10-30,49,39,32,46,35,27,89,85,81,30.14,29.70,30,1,56,0.00
2013-10-31,52,48,45,49,45,42,91,89,87,29.70,29.16,30,1,55,0.34
2013-11-1,44,41,38,42,38,33,92,89,83,29.68,29.12,8,2,21,0.93
2013-11-2,42,37,32,34,31,27,89,79,63,30.08,29.68,38,1,55,0.06
2013-11-3,46,37,29,34,29,-100,85,75,60,30.22,30.08,7,2,43,0.00
2013-11-4,49,46,42,40,38,35,80,75,69,30.13,29.90,14,4,39,0.00
2013-11-5,52,43,33,40,34,27,84,71,48,30.14,29.97,6,1,55,0.00
2013-11-6,38,35,32,34,30,26,89,84,75,29.98,29.78,15,2,46,0.91
2013-11-7,36,33,32,30,28,25,84,79,76,30.03,29.93,10,2,58,0.08
2013-11-8,41,34,30,29,26,22,81,73,55,30.10,29.86,9,1,47,0.08
2013-11-9,39,36,34,35,31,-100,88,85,81,29.83,29.52,8,2,33,0.20
2013-11-10,40,35,33,33,30,27,89,80,68,30.11,29.74,9,3,12,0.08
2013-11-11,36,26,22,29,19,15,85,74,64,30.41,29.90,10,4,14,0.00
2013-11-12,29,23,20,16,13,10,71,65,57,30.50,30.29,7,2,15,0.00
2013-11-13,46,34,17,31,22,10,77,62,52,30.28,29.62,16,3,28,0.00
2013-11-14,46,40,32,34,31,26,80,71,62,29.72,29.67,6,1,25,0.15
2013-11-15,52,39,28,39,32,24,86,75,57,29.75,29.70,13,1,35,0.15
2013-11-16,49,42,37,46,35,-100,90,79,72,29.75,29.26,11,2,13,0.16
2013-11-17,52,47,37,49,43,32,91,87,81,29.30,29.11,42,3,51,0.39
2013-11-18,37,29,26,32,22,18,84,75,67,30.09,29.21,12,6,17,0.23
2013-11-19,34,28,22,22,19,15,75,67,57,30.28,30.05,7,2,13,0.00
2013-11-20,40,37,33,31,28,21,82,70,60,30.08,30.01,26,5,45,0.00
2013-11-21,39,35,28,34,30,25,87,84,79,30.25,30.03,7,1,43,0.10
2013-11-22,31,26,20,25,20,11,87,75,64,30.36,30.21,10,1,56,0.10
2013-11-23,20,14,11,12,5,-100,80,72,66,30.51,30.27,9,4,15,0.00
2013-11-24,22,16,10,11,6,4,76,66,56,30.49,29.88,9,3,13,0.00
2013-11-25,35,30,22,28,22,10,85,73,59,29.86,29.65,13,3,28,0.00
2013-11-26,31,21,13,27,15,7,85,78,71,30.07,29.78,10,2,15,0.00
2013-11-27,25,21,17,17,15,12,82,77,68,30.16,30.06,9,2,9,0.00
2013-12-3,30,28,26,25,22,20,84,79,76,29.93,29.84,9,2,47,0.00
2013-12-4,32,29,28,29,26,23,89,87,80,29.90,29.26,7,3,35,0.00
2013-12-5,34,21,10,31,14,2,90,73,62,29.93,29.23,35,1,49,0.00
2013-12-6,17,10,5,8,2,-1,75,70,61,30.26,29.94,0,0,44,0.00
2013-12-7,13,6,0,3,-4,-100,76,68,60,30.43,30.27,8,1,14,0.00
2013-12-8,16,7,-2,5,-1,-9,76,69,56,30.40,30.00,7,1,29,0.00
2013-12-9,19,11,3,11,3,-7,81,70,60,30.00,29.66,8,3,43,0.00
2013-12-14,18,11,5,8,3,-100,79,72,59,30.31,29.83,3,0,53,0.00
2013-12-15,18,14,12,13,10,7,84,81,77,29.97,29.67,10,3,13,0.00
2013-12-16,18,11,0,9,5,-5,83,77,68,30.01,29.77,17,1,49,0.00
2013-12-17,28,17,11,21,11,5,82,79,74,29.87,29.66,12,2,55,0.00
2013-12-18,19,15,10,11,9,4,80,76,68,29.90,29.61,12,1,44,0.00
2013-12-19,24,19,16,20,13,9,83,79,75,30.08,29.63,21,3,36,0.00
2013-12-20,24,20,16,19,15,12,84,81,75,30.03,29.81,16,0,54,0.00
2013-12-21,29,21,16,22,14,-100,84,80,73,29.96,29.79,29,1,56,0.00
2013-12-22,26,23,18,19,17,13,84,78,72,30.05,29.87,8,2,37,0.00
2013-12-23,19,16,13,13,10,6,82,77,71,30.30,30.05,3,1,6,0.00
2013-12-24,21,14,11,12,7,2,79,71,61,30.35,30.13,6,1,43,0.00
2013-12-25,21,15,11,11,8,4,76,71,64,30.13,29.89,26,3,46,0.00
2013-12-26,20,15,11,10,8,3,79,72,62,30.11,29.90,6,2,51,0.00
2013-12-27,33,20,8,28,14,2,81,76,72,30.09,29.68,10,2,13,0.00